Time;durP1;ratioP1;P1;durP2;ratioP2;P2;SDS_P1;SDS_P2;PMS_P1;PMS_P2;Temp;Humidity;BMP_temperature;BMP_pressure;BME280_temperature;BME280_humidity;BME280_pressure;Samples;Min_cycle;Max_cycle;Signal;HPM_P1;HPM_P2
2023/01/03 00:00:50;;;;;;;3.33;1.02;;;;;;;;;;6030172;23;20507;-87
2023/01/03 00:03:16;;;;;;;3.10;1.13;;;;;;;;;;5983162;23;20637;-87
2023/01/03 00:05:48;;;;;;;2.25;0.90;;;;;;;;;;5983120;23;20075;-87
2023/01/03 00:08:14;;;;;;;3.97;1.10;;;;;;;;;;5983329;23;20531;-87
2023/01/03 00:10:40;;;;;;;3.65;1.42;;;;;;;;;;5983041;23;20466;-86
2023/01/03 00:13:06;;;;;;;2.92;0.90;;;;;;;;;;5984741;23;20027;-88
2023/01/03 00:15:34;;;;;;;2.17;0.95;;;;;;;;;;6011424;23;21248;-88
2023/01/03 00:18:00;;;;;;;2.75;1.08;;;;;;;;;;5983545;23;20432;-87
2023/01/03 00:20:25;;;;;;;3.35;1.10;;;;;;;;;;6006088;23;20087;-88
2023/01/03 00:22:51;;;;;;;3.05;1.10;;;;;;;;;;6007705;23;20547;-85
2023/01/03 00:25:16;;;;;;;3.00;0.82;;;;;;;;;;6006175;23;20045;-86
2023/01/03 00:27:42;;;;;;;4.25;1.30;;;;;;;;;;6006292;23;20454;-86
2023/01/03 00:30:08;;;;;;;3.60;1.00;;;;;;;;;;6007124;23;20019;-87
2023/01/03 00:32:33;;;;;;;2.47;1.15;;;;;;;;;;5982719;23;20025;-86
2023/01/03 00:34:58;;;;;;;1.95;0.90;;;;;;;;;;6007208;23;20082;-85
2023/01/03 00:37:24;;;;;;;1.90;0.80;;;;;;;;;;6029516;23;20038;-86
2023/01/03 00:39:49;;;;;;;3.38;0.90;;;;;;;;;;6007169;23;20022;-84
2023/01/03 00:42:14;;;;;;;4.47;1.00;;;;;;;;;;5982929;23;20026;-86
2023/01/03 00:44:40;;;;;;;3.00;0.80;;;;;;;;;;5982771;23;20269;-85
2023/01/03 00:47:05;;;;;;;2.78;0.63;;;;;;;;;;6006754;23;20030;-86
2023/01/03 00:49:31;;;;;;;2.80;0.85;;;;;;;;;;6030018;23;20015;-86
2023/01/03 00:51:57;;;;;;;2.58;1.00;;;;;;;;;;6029170;23;20011;-86
2023/01/03 00:54:23;;;;;;;3.10;1.05;;;;;;;;;;6007085;23;20514;-86
2023/01/03 00:56:49;;;;;;;3.00;0.70;;;;;;;;;;6029298;23;20020;-86
2023/01/03 00:59:16;;;;;;;3.08;1.08;;;;;;;;;;5983669;23;20535;-86
2023/01/03 01:01:47;;;;;;;3.22;0.80;;;;;;;;;;5981244;23;20071;-84
2023/01/03 01:04:32;;;;;;;2.20;0.95;;;;;;;;;;5983142;23;20411;-85
2023/01/03 01:07:00;;;;;;;2.63;0.90;;;;;;;;;;6005044;23;21016;-86
2023/01/03 01:09:28;;;;;;;2.13;0.98;;;;;;;;;;6006200;23;20034;-86
2023/01/03 01:11:54;;;;;;;2.60;1.00;;;;;;;;;;5982018;23;20018;-86
2023/01/03 01:14:21;;;;;;;3.15;1.15;;;;;;;;;;5982906;23;20019;-85
2023/01/03 01:17:02;;;;;;;1.95;0.90;;;;;;;;;;6029826;23;20019;-87
2023/01/03 01:19:30;;;;;;;2.58;0.93;;;;;;;;;;6007054;23;20039;-86
2023/01/03 01:21:56;;;;;;;5.03;1.00;;;;;;;;;;5982394;23;20026;-86
2023/01/03 01:24:21;;;;;;;2.95;1.00;;;;;;;;;;5983150;23;20511;-87
2023/01/03 01:26:49;;;;;;;2.53;1.08;;;;;;;;;;5981276;23;20035;-87
2023/01/03 01:29:16;;;;;;;5.30;1.30;;;;;;;;;;5983091;23;20396;-87
2023/01/03 01:31:43;;;;;;;4.18;1.35;;;;;;;;;;6005272;23;20340;-86
2023/01/03 01:34:08;;;;;;;3.92;1.10;;;;;;;;;;5984537;23;20043;-86
2023/01/03 01:36:38;;;;;;;2.45;0.90;;;;;;;;;;5981264;23;20347;-87
2023/01/03 01:39:16;;;;;;;2.10;0.90;;;;;;;;;;5984314;23;20019;-87
2023/01/03 01:44:53;;;;;;;3.90;1.15;;;;;;;;;;6010519;23;20034;-87
2023/01/03 01:47:21;;;;;;;2.60;1.10;;;;;;;;;;6029389;23;20031;-87
2023/01/03 01:49:49;;;;;;;3.10;1.15;;;;;;;;;;6005900;23;20015;-86
2023/01/03 01:52:15;;;;;;;3.47;1.10;;;;;;;;;;5982961;23;20014;-88
2023/01/03 01:54:41;;;;;;;2.77;1.10;;;;;;;;;;5982491;23;20510;-88
2023/01/03 01:57:13;;;;;;;3.38;1.10;;;;;;;;;;5982765;23;20027;-88
2023/01/03 01:59:38;;;;;;;3.30;1.30;;;;;;;;;;5982322;23;20483;-87
2023/01/03 02:02:04;;;;;;;2.88;1.10;;;;;;;;;;5982097;23;20012;-87
2023/01/03 02:04:33;;;;;;;2.10;1.05;;;;;;;;;;6005526;23;20030;-88
2023/01/03 02:06:58;;;;;;;3.28;1.13;;;;;;;;;;5981879;23;20027;-87
2023/01/03 02:09:24;;;;;;;3.80;1.20;;;;;;;;;;5982593;23;20025;-88
2023/01/03 02:13:04;;;;;;;3.85;1.20;;;;;;;;;;5982080;23;20020;-87
2023/01/03 02:15:11;;;;;;;2.58;1.00;;;;;;;;;;6031032;23;20011;-88
2023/01/03 02:17:43;;;;;;;3.30;0.98;;;;;;;;;;6005568;23;20019;-86
2023/01/03 02:20:42;;;;;;;2.35;1.00;;;;;;;;;;6028608;23;20443;-88
2023/01/03 02:23:26;;;;;;;2.45;1.00;;;;;;;;;;6006337;23;20047;-87
2023/01/03 02:26:03;;;;;;;3.65;1.30;;;;;;;;;;6052841;23;20070;-88
2023/01/03 02:28:47;;;;;;;2.33;1.10;;;;;;;;;;6053969;23;20031;-88
2023/01/03 02:31:17;;;;;;;3.13;1.20;;;;;;;;;;6004477;23;20023;-88
2023/01/03 02:33:51;;;;;;;3.25;1.10;;;;;;;;;;6006053;23;20039;-87
2023/01/03 02:36:35;;;;;;;3.40;1.17;;;;;;;;;;5981768;23;20019;-88
2023/01/03 02:39:12;;;;;;;2.95;1.10;;;;;;;;;;6006257;23;20019;-88
2023/01/03 02:41:44;;;;;;;2.50;0.82;;;;;;;;;;6029299;23;20090;-88
2023/01/03 02:44:26;;;;;;;3.42;0.95;;;;;;;;;;6053567;23;20094;-88
2023/01/03 02:46:57;;;;;;;4.90;1.02;;;;;;;;;;5981449;23;20531;-88
2023/01/03 02:49:42;;;;;;;2.60;0.90;;;;;;;;;;5982387;23;20031;-88
2023/01/03 02:52:12;;;;;;;3.58;1.23;;;;;;;;;;5981926;23;20340;-87
2023/01/03 02:54:42;;;;;;;3.17;0.75;;;;;;;;;;5982637;23;20086;-88
2023/01/03 02:57:17;;;;;;;2.13;1.00;;;;;;;;;;6029203;23;20049;-88
2023/01/03 02:59:50;;;;;;;2.70;1.02;;;;;;;;;;6029526;23;20098;-87
2023/01/03 03:02:16;;;;;;;4.05;0.98;;;;;;;;;;6028501;23;20067;-88
2023/01/03 03:04:45;;;;;;;3.20;1.02;;;;;;;;;;5981956;23;20400;-87
2023/01/03 03:07:33;;;;;;;1.73;0.90;;;;;;;;;;5981108;23;20099;-87
2023/01/03 03:15:32;;;;;;;2.03;1.00;;;;;;;;;;6008109;23;20083;-88
2023/01/03 03:18:05;;;;;;;3.15;1.00;;;;;;;;;;6006339;23;20031;-86
2023/01/03 03:26:06;;;;;;;3.15;1.20;;;;;;;;;;6008336;23;20022;-87
2023/01/03 03:28:34;;;;;;;3.38;1.13;;;;;;;;;;5981932;23;20123;-87
2023/01/03 03:31:27;;;;;;;4.47;1.35;;;;;;;;;;5980821;23;20026;-87
2023/01/03 03:33:55;;;;;;;2.40;1.00;;;;;;;;;;6005620;23;20351;-86
2023/01/03 03:36:23;;;;;;;;;;;;;;;;;;5981885;23;20369;-86
2023/01/03 03:38:49;;;;;;;1.60;0.73;;;;;;;;;;6005200;23;19930;-87
2023/01/03 03:47:41;;;;;;;3.38;1.02;;;;;;;;;;6008546;23;20050;-87
2023/01/03 03:50:16;;;;;;;2.73;1.03;;;;;;;;;;6005823;23;20090;-86
2023/01/03 03:52:44;;;;;;;2.85;1.05;;;;;;;;;;6004157;23;20251;-85
2023/01/03 03:55:14;;;;;;;3.72;1.13;;;;;;;;;;6005220;23;20455;-86
2023/01/03 03:57:47;;;;;;;3.65;0.93;;;;;;;;;;5981460;23;20440;-86
2023/01/03 04:00:17;;;;;;;2.38;1.15;;;;;;;;;;5981222;23;20019;-87
2023/01/03 04:02:45;;;;;;;3.20;1.17;;;;;;;;;;6006165;23;20019;-86
2023/01/03 04:05:13;;;;;;;2.90;1.08;;;;;;;;;;6007457;23;20034;-86
2023/01/03 04:07:39;;;;;;;3.20;1.17;;;;;;;;;;6030686;23;20019;-85
2023/01/03 04:10:05;;;;;;;3.88;1.02;;;;;;;;;;5983954;23;20473;-86
2023/01/03 04:12:30;;;;;;;4.25;1.20;;;;;;;;;;5983614;23;20091;-85
2023/01/03 04:14:56;;;;;;;2.80;1.20;;;;;;;;;;5984040;23;20507;-85
2023/01/03 04:17:21;;;;;;;2.20;1.00;;;;;;;;;;5983046;23;20387;-85
2023/01/03 04:19:46;;;;;;;3.65;1.20;;;;;;;;;;6029823;23;20102;-86
2023/01/03 04:22:12;;;;;;;3.15;1.10;;;;;;;;;;6030898;23;20026;-87
2023/01/03 04:24:37;;;;;;;4.15;1.20;;;;;;;;;;5984386;23;20070;-86
2023/01/03 04:27:03;;;;;;;3.85;1.50;;;;;;;;;;6030530;23;20204;-86
2023/01/03 04:29:28;;;;;;;3.13;1.30;;;;;;;;;;6030779;23;20023;-86
2023/01/03 04:31:53;;;;;;;2.63;1.13;;;;;;;;;;6029947;23;20066;-86
2023/01/03 04:34:19;;;;;;;3.00;1.30;;;;;;;;;;6007036;23;20025;-86
2023/01/03 04:36:44;;;;;;;2.90;1.30;;;;;;;;;;5982666;23;20436;-86
2023/01/03 04:39:10;;;;;;;2.35;1.13;;;;;;;;;;5983764;23;20026;-86
2023/01/03 04:41:35;;;;;;;2.20;1.05;;;;;;;;;;5982931;23;20082;-86
2023/01/03 04:44:01;;;;;;;4.75;1.58;;;;;;;;;;6006956;23;20090;-82
2023/01/03 04:46:34;;;;;;;5.55;1.30;;;;;;;;;;5982576;23;20043;-83
2023/01/03 04:49:00;;;;;;;3.78;1.50;;;;;;;;;;6006689;23;20096;-84
2023/01/03 04:51:26;;;;;;;3.58;1.45;;;;;;;;;;6005605;23;20071;-83
2023/01/03 04:53:53;;;;;;;3.33;1.00;;;;;;;;;;5983409;23;20043;-83
2023/01/03 04:56:27;;;;;;;2.60;1.15;;;;;;;;;;5982486;23;20019;-83
2023/01/03 04:58:52;;;;;;;5.43;1.45;;;;;;;;;;6007096;23;20459;-83
2023/01/03 05:01:21;;;;;;;4.47;1.38;;;;;;;;;;5981808;23;20019;-81
2023/01/03 05:03:55;;;;;;;3.95;1.17;;;;;;;;;;5970792;23;20451;-86
2023/01/03 05:06:20;;;;;;;4.10;1.50;;;;;;;;;;5982146;23;20451;-86
2023/01/03 05:08:46;;;;;;;4.80;1.60;;;;;;;;;;5983174;23;20030;-85
2023/01/03 05:11:12;;;;;;;6.95;1.58;;;;;;;;;;5982090;23;20011;-85
2023/01/03 05:13:38;;;;;;;3.03;1.40;;;;;;;;;;5983278;23;20448;-86
2023/01/03 05:16:08;;;;;;;3.72;1.50;;;;;;;;;;5981835;23;20011;-85
2023/01/03 05:18:34;;;;;;;3.63;1.30;;;;;;;;;;5982208;23;20557;-85
2023/01/03 05:26:37;;;;;;;3.05;1.48;;;;;;;;;;6010927;23;20042;-83
2023/01/03 05:29:02;;;;;;;3.15;1.30;;;;;;;;;;5984364;23;20019;-84
2023/01/03 05:31:27;;;;;;;5.80;1.70;;;;;;;;;;5983268;23;20045;-83
2023/01/03 05:33:53;;;;;;;3.42;1.60;;;;;;;;;;6031007;23;20019;-83
2023/01/03 05:36:18;;;;;;;2.75;1.30;;;;;;;;;;6029027;23;20129;-83
2023/01/03 05:38:44;;;;;;;2.63;1.20;;;;;;;;;;5984120;23;20375;-83
2023/01/03 05:41:11;;;;;;;3.38;1.40;;;;;;;;;;6028430;23;20030;-85
2023/01/03 05:43:37;;;;;;;;;;;;;;;;;;6007653;23;20027;-86
2023/01/03 05:46:02;;;;;;;4.63;1.17;;;;;;;;;;5981788;23;20022;-87
2023/01/03 05:48:27;;;;;;;4.15;1.60;;;;;;;;;;6030469;23;20022;-88
2023/01/03 05:50:56;;;;;;;4.35;1.50;;;;;;;;;;5981668;23;20015;-87
2023/01/03 05:53:21;;;;;;;4.07;1.70;;;;;;;;;;5982810;23;20403;-88
2023/01/03 05:55:47;;;;;;;3.78;1.27;;;;;;;;;;5981841;23;20043;-86
2023/01/03 05:58:12;;;;;;;3.80;1.48;;;;;;;;;;5982064;23;20458;-86
2023/01/03 06:00:38;;;;;;;5.00;1.55;;;;;;;;;;6005723;23;20467;-86
2023/01/03 06:03:03;;;;;;;3.42;1.23;;;;;;;;;;5981638;23;20021;-87
2023/01/03 06:05:28;;;;;;;4.20;1.30;;;;;;;;;;6018883;23;20114;-85
2023/01/03 06:07:54;;;;;;;3.55;1.30;;;;;;;;;;6005607;23;20327;-86
2023/01/03 06:10:19;;;;;;;3.10;1.13;;;;;;;;;;6005068;23;20359;-86
2023/01/03 06:12:45;;;;;;;3.10;1.20;;;;;;;;;;5982545;23;20340;-85
2023/01/03 06:15:10;;;;;;;4.05;1.50;;;;;;;;;;6029078;23;20023;-86
2023/01/03 06:17:54;;;;;;;4.05;1.20;;;;;;;;;;5982622;23;20023;-86
2023/01/03 06:20:19;;;;;;;3.63;1.25;;;;;;;;;;5984196;23;20538;-86
2023/01/03 06:22:45;;;;;;;4.45;1.30;;;;;;;;;;6028431;23;20015;-86
2023/01/03 06:25:11;;;;;;;2.50;1.30;;;;;;;;;;6029579;23;20809;-87
2023/01/03 06:27:36;;;;;;;3.85;1.45;;;;;;;;;;5982374;23;20011;-86
2023/01/03 06:30:02;;;;;;;7.55;1.70;;;;;;;;;;5982962;23;20019;-86
2023/01/03 06:32:28;;;;;;;5.40;1.73;;;;;;;;;;5981639;23;20015;-86
2023/01/03 06:34:53;;;;;;;3.47;1.40;;;;;;;;;;5982036;23;20335;-85
2023/01/03 06:37:19;;;;;;;3.88;1.45;;;;;;;;;;5981220;23;20023;-86
2023/01/03 06:39:45;;;;;;;3.17;1.40;;;;;;;;;;5981850;23;20447;-86
2023/01/03 06:53:19;;;;;;;6.70;2.30;;;;;;;;;;6009490;23;20018;-86
2023/01/03 06:55:45;;;;;;;5.47;2.05;;;;;;;;;;6027963;23;20015;-86
2023/01/03 06:58:12;;;;;;;5.45;1.75;;;;;;;;;;5982080;23;20015;-85
2023/01/03 07:00:39;;;;;;;4.47;1.83;;;;;;;;;;6005277;23;20046;-85
2023/01/03 07:03:05;;;;;;;6.30;1.77;;;;;;;;;;5983158;23;20014;-85
2023/01/03 07:05:30;;;;;;;3.25;1.63;;;;;;;;;;6004821;23;20317;-84
2023/01/03 07:07:55;;;;;;;4.20;1.98;;;;;;;;;;6005551;23;20027;-84
2023/01/03 07:10:21;;;;;;;4.15;1.80;;;;;;;;;;6028719;23;20035;-84
2023/01/03 07:15:30;;;;;;;4.32;1.98;;;;;;;;;;6008769;23;20022;-84
2023/01/03 07:17:56;;;;;;;5.80;2.20;;;;;;;;;;6005451;23;20023;-85
2023/01/03 07:20:21;;;;;;;5.85;2.20;;;;;;;;;;6028191;23;20103;-84
2023/01/03 07:22:46;;;;;;;5.43;1.95;;;;;;;;;;5982093;23;20019;-84
2023/01/03 07:25:12;;;;;;;5.38;1.85;;;;;;;;;;6028925;23;20016;-85
2023/01/03 07:27:37;;;;;;;4.65;2.00;;;;;;;;;;5981367;23;20138;-85
2023/01/03 07:30:03;;;;;;;6.25;2.10;;;;;;;;;;6030963;23;20029;-85
2023/01/03 07:32:29;;;;;;;4.53;1.90;;;;;;;;;;5981291;23;20027;-85
2023/01/03 07:34:54;;;;;;;6.63;2.25;;;;;;;;;;6029503;23;20046;-85
2023/01/03 07:37:19;;;;;;;7.43;2.03;;;;;;;;;;5982201;23;20015;-84
2023/01/03 07:39:45;;;;;;;4.43;2.03;;;;;;;;;;5982941;23;20387;-85
2023/01/03 07:44:54;;;;;;;4.35;1.92;;;;;;;;;;6010979;23;20023;-84
2023/01/03 07:47:20;;;;;;;5.00;1.80;;;;;;;;;;6006660;23;20467;-85
2023/01/03 07:49:45;;;;;;;6.65;2.60;;;;;;;;;;5983744;23;20026;-84
2023/01/03 07:52:10;;;;;;;4.68;2.05;;;;;;;;;;6005941;23;20626;-85
2023/01/03 07:54:36;;;;;;;3.70;1.70;;;;;;;;;;6031115;23;20477;-85
2023/01/03 07:57:01;;;;;;;5.47;2.10;;;;;;;;;;5982377;23;20034;-84
2023/01/03 07:59:26;;;;;;;4.82;2.05;;;;;;;;;;6006771;23;20023;-83
2023/01/03 08:01:52;;;;;;;8.05;1.90;;;;;;;;;;6029018;23;20015;-85
2023/01/03 08:04:17;;;;;;;6.50;2.45;;;;;;;;;;5982663;23;20027;-84
2023/01/03 08:06:43;;;;;;;6.32;2.22;;;;;;;;;;6015070;23;20066;-85
2023/01/03 08:14:47;;;;;;;5.68;1.77;;;;;;;;;;5984650;23;20050;-84
2023/01/03 08:17:13;;;;;;;8.73;2.45;;;;;;;;;;5981775;23;20011;-84
2023/01/03 08:19:38;;;;;;;7.43;2.42;;;;;;;;;;6030274;23;20101;-84
2023/01/03 08:22:03;;;;;;;4.28;2.17;;;;;;;;;;5979647;23;20090;-85
2023/01/03 08:24:29;;;;;;;4.15;2.00;;;;;;;;;;6019748;23;20436;-85
2023/01/03 08:26:54;;;;;;;5.22;2.33;;;;;;;;;;5982059;23;20023;-84
2023/01/03 08:29:20;;;;;;;5.10;1.98;;;;;;;;;;6006211;23;20016;-84
2023/01/03 08:31:52;;;;;;;6.20;2.00;;;;;;;;;;6028224;23;20019;-84
2023/01/03 08:34:18;;;;;;;4.40;2.03;;;;;;;;;;5982278;23;20026;-84
2023/01/03 08:36:48;;;;;;;5.78;2.17;;;;;;;;;;5981829;23;20023;-84
2023/01/03 08:39:17;;;;;;;6.93;2.70;;;;;;;;;;6005925;23;20018;-85
2023/01/03 08:41:49;;;;;;;4.60;2.00;;;;;;;;;;5981491;23;20359;-84
2023/01/03 08:44:18;;;;;;;6.28;2.35;;;;;;;;;;5982686;23;20069;-85
2023/01/03 08:46:48;;;;;;;5.88;2.25;;;;;;;;;;5981146;23;20015;-84
2023/01/03 08:49:13;;;;;;;4.97;2.17;;;;;;;;;;5980816;23;20083;-84
2023/01/03 08:51:39;;;;;;;4.72;2.53;;;;;;;;;;5982318;23;20019;-85
2023/01/03 08:54:04;;;;;;;6.00;2.05;;;;;;;;;;5983122;23;20015;-84
2023/01/03 08:56:41;;;;;;;6.93;2.10;;;;;;;;;;5981624;23;20027;-85
2023/01/03 08:59:07;;;;;;;3.33;1.67;;;;;;;;;;5984765;23;20026;-83
2023/01/03 09:01:32;;;;;;;7.45;2.28;;;;;;;;;;6027886;23;20016;-84
2023/01/03 09:03:58;;;;;;;4.07;1.65;;;;;;;;;;5982753;23;20023;-84
2023/01/03 09:06:23;;;;;;;4.45;2.17;;;;;;;;;;6027206;23;20387;-84
2023/01/03 09:08:49;;;;;;;6.80;2.42;;;;;;;;;;6029526;23;20027;-85
2023/01/03 09:11:14;;;;;;;4.80;1.80;;;;;;;;;;6005068;23;20090;-85
2023/01/03 09:13:40;;;;;;;4.68;1.90;;;;;;;;;;5982906;23;20015;-84
2023/01/03 09:16:08;;;;;;;4.88;1.90;;;;;;;;;;5981097;23;20047;-84
2023/01/03 09:18:34;;;;;;;3.97;1.50;;;;;;;;;;5982840;23;20495;-84
2023/01/03 09:21:00;;;;;;;6.97;1.75;;;;;;;;;;5981120;23;20044;-84
2023/01/03 09:23:26;;;;;;;5.63;1.80;;;;;;;;;;5982033;23;20015;-85
2023/01/03 09:25:51;;;;;;;4.80;2.00;;;;;;;;;;6028324;23;20034;-84
2023/01/03 09:28:16;;;;;;;3.60;1.63;;;;;;;;;;5981884;23;20023;-84
2023/01/03 09:30:42;;;;;;;4.55;1.83;;;;;;;;;;5980493;23;20468;-84
2023/01/03 09:33:09;;;;;;;3.47;1.73;;;;;;;;;;5983028;23;20031;-83
2023/01/03 09:35:35;;;;;;;3.25;1.77;;;;;;;;;;6028389;23;20096;-84
2023/01/03 09:38:01;;;;;;;8.30;1.92;;;;;;;;;;5982553;23;20018;-85
2023/01/03 09:40:26;;;;;;;3.88;1.50;;;;;;;;;;5981673;23;20509;-84
2023/01/03 09:45:38;;;;;;;5.95;1.63;;;;;;;;;;6008499;23;20030;-84
2023/01/03 09:48:03;;;;;;;;;;;;;;;;;;5983028;23;20381;-84
2023/01/03 09:50:33;;;;;;;4.03;1.60;;;;;;;;;;5986502;23;19930;-86
2023/01/03 10:04:37;;;;;;;3.20;1.52;;;;;;;;;;6030541;23;20354;-85
2023/01/03 10:07:26;;;;;;;4.30;1.27;;;;;;;;;;5950405;23;20490;-84
2023/01/03 10:09:57;;;;;;;4.57;1.58;;;;;;;;;;5980609;23;20022;-84
2023/01/03 10:12:27;;;;;;;2.55;1.30;;;;;;;;;;6052956;23;20023;-84
2023/01/03 10:15:05;;;;;;;5.03;1.65;;;;;;;;;;6005013;23;20443;-84
2023/01/03 10:18:14;;;;;;;4.00;1.60;;;;;;;;;;6030082;23;20740;-84
2023/01/03 10:20:47;;;;;;;5.30;2.03;;;;;;;;;;5998966;23;20015;-83
2023/01/03 10:23:13;;;;;;;4.13;1.92;;;;;;;;;;6029515;23;20022;-83
2023/01/03 10:25:41;;;;;;;3.85;2.00;;;;;;;;;;6005233;23;20356;-84
2023/01/03 10:28:19;;;;;;;4.28;1.52;;;;;;;;;;5982463;23;20632;-84
2023/01/03 10:31:14;;;;;;;4.50;1.52;;;;;;;;;;6027808;23;20053;-83
2023/01/03 10:33:41;;;;;;;6.78;1.98;;;;;;;;;;5998070;23;20471;-84
2023/01/03 10:36:07;;;;;;;5.07;2.00;;;;;;;;;;6005007;23;20067;-84
2023/01/03 10:38:33;;;;;;;4.40;1.60;;;;;;;;;;5981991;23;20017;-83
2023/01/03 10:41:01;;;;;;;5.63;1.85;;;;;;;;;;6027515;23;20490;-84
2023/01/03 10:43:30;;;;;;;5.80;2.20;;;;;;;;;;5982319;23;20011;-84
2023/01/03 10:45:59;;;;;;;9.25;2.00;;;;;;;;;;6004615;23;20027;-84
2023/01/03 10:48:33;;;;;;;6.80;2.20;;;;;;;;;;5981400;23;20042;-86
2023/01/03 10:50:59;;;;;;;5.25;2.10;;;;;;;;;;5980621;23;20094;-84
2023/01/03 10:53:24;;;;;;;5.93;2.13;;;;;;;;;;6029611;23;20046;-84
2023/01/03 10:55:51;;;;;;;4.30;2.08;;;;;;;;;;6028327;23;20023;-85
2023/01/03 10:58:22;;;;;;;8.27;2.40;;;;;;;;;;5981809;23;20448;-86
2023/01/03 11:00:47;;;;;;;6.22;2.25;;;;;;;;;;5981571;23;20333;-84
2023/01/03 11:03:16;;;;;;;5.35;2.80;;;;;;;;;;6028846;23;20110;-86
2023/01/03 11:05:47;;;;;;;8.23;2.80;;;;;;;;;;6027144;23;20025;-85
2023/01/03 11:08:33;;;;;;;7.00;2.40;;;;;;;;;;5981644;23;20023;-84
2023/01/03 11:10:59;;;;;;;4.00;1.98;;;;;;;;;;5980170;23;20051;-85
2023/01/03 11:13:29;;;;;;;5.55;2.45;;;;;;;;;;6006738;23;20018;-85
2023/01/03 11:15:57;;;;;;;6.90;2.45;;;;;;;;;;5983063;23;20011;-85
2023/01/03 11:18:24;;;;;;;7.70;2.47;;;;;;;;;;6006805;23;20015;-84
2023/01/03 11:21:00;;;;;;;4.78;2.33;;;;;;;;;;6030352;23;20380;-84
2023/01/03 11:24:01;;;;;;;5.80;2.80;;;;;;;;;;6007498;23;20027;-84
2023/01/03 11:26:32;;;;;;;7.10;2.80;;;;;;;;;;5893831;24;20021;-84
2023/01/03 11:29:21;;;;;;;7.72;2.60;;;;;;;;;;6012195;23;20054;-84
2023/01/03 11:31:55;;;;;;;7.13;3.08;;;;;;;;;;6006519;23;20086;-85
2023/01/03 11:34:39;;;;;;;7.75;2.85;;;;;;;;;;6030216;23;20019;-84
2023/01/03 11:37:04;;;;;;;6.72;2.65;;;;;;;;;;6054022;23;20015;-85
2023/01/03 11:39:51;;;;;;;6.63;2.65;;;;;;;;;;6006585;23;25899;-85
2023/01/03 11:42:31;;;;;;;5.80;2.60;;;;;;;;;;6029285;23;20496;-85
2023/01/03 11:45:28;;;;;;;5.43;2.67;;;;;;;;;;6006491;23;20383;-85
2023/01/03 11:48:27;;;;;;;6.10;2.83;;;;;;;;;;6004718;23;20042;-84
2023/01/03 11:51:07;;;;;;;6.65;2.85;;;;;;;;;;6039050;23;20033;-85
2023/01/03 11:53:56;;;;;;;5.88;2.80;;;;;;;;;;6054361;23;20507;-84
2023/01/03 11:56:29;;;;;;;6.60;2.80;;;;;;;;;;5991266;23;20147;-84
2023/01/03 11:59:02;;;;;;;6.38;2.85;;;;;;;;;;6030882;23;20143;-84
2023/01/03 12:01:50;;;;;;;6.85;2.80;;;;;;;;;;6005157;23;20329;-84
2023/01/03 12:04:54;;;;;;;5.50;2.63;;;;;;;;;;6006104;23;20392;-84
2023/01/03 12:07:29;;;;;;;7.20;2.95;;;;;;;;;;5972342;23;20502;-85
2023/01/03 12:10:20;;;;;;;4.95;2.47;;;;;;;;;;6007133;23;20466;-85
2023/01/03 12:13:13;;;;;;;5.40;2.47;;;;;;;;;;6007141;23;20019;-85
2023/01/03 12:15:51;;;;;;;7.82;2.67;;;;;;;;;;6005374;23;20030;-85
2023/01/03 12:18:40;;;;;;;5.50;2.88;;;;;;;;;;6029422;23;20030;-85
2023/01/03 12:21:17;;;;;;;7.00;2.60;;;;;;;;;;6006082;23;20090;-84
2023/01/03 12:23:47;;;;;;;5.05;2.80;;;;;;;;;;6007119;23;20574;-85
2023/01/03 12:26:14;;;;;;;6.28;3.08;;;;;;;;;;6029826;23;20121;-85
2023/01/03 12:28:47;;;;;;;4.65;2.70;;;;;;;;;;5983614;23;20071;-85
2023/01/03 12:31:21;;;;;;;7.40;2.70;;;;;;;;;;6006236;23;20048;-85
2023/01/03 12:34:03;;;;;;;6.15;2.75;;;;;;;;;;6006381;23;20023;-85
2023/01/03 12:36:40;;;;;;;5.72;2.40;;;;;;;;;;6004610;23;20080;-84
2023/01/03 12:39:09;;;;;;;5.32;2.30;;;;;;;;;;6054787;23;20022;-84
2023/01/03 12:41:42;;;;;;;5.85;2.80;;;;;;;;;;6004687;23;20019;-85
2023/01/03 12:44:15;;;;;;;4.80;2.30;;;;;;;;;;6029531;23;20015;-86
2023/01/03 12:46:47;;;;;;;5.57;2.15;;;;;;;;;;6029041;23;20351;-85
2023/01/03 12:50:03;;;;;;;4.60;2.28;;;;;;;;;;6006798;23;20019;-85
2023/01/03 12:52:31;;;;;;;5.33;2.20;;;;;;;;;;6004158;23;20023;-85
2023/01/03 12:55:03;;;;;;;5.38;2.13;;;;;;;;;;6006967;23;20023;-85
2023/01/03 12:58:00;;;;;;;4.18;2.00;;;;;;;;;;5983118;23;20026;-86
2023/01/03 13:00:41;;;;;;;6.55;2.47;;;;;;;;;;6005454;23;20022;-85
2023/01/03 13:03:17;;;;;;;4.68;2.25;;;;;;;;;;5981823;23;20083;-85
2023/01/03 13:05:49;;;;;;;4.40;2.05;;;;;;;;;;5980549;23;20043;-85
2023/01/03 13:08:35;;;;;;;7.03;2.22;;;;;;;;;;5982914;23;20396;-85
2023/01/03 13:11:06;;;;;;;5.00;2.22;;;;;;;;;;6005368;23;20344;-85
2023/01/03 13:13:32;;;;;;;5.13;2.30;;;;;;;;;;5983380;23;20050;-85
2023/01/03 13:15:57;;;;;;;4.15;2.40;;;;;;;;;;5981247;23;20472;-85
2023/01/03 13:18:22;;;;;;;5.05;2.13;;;;;;;;;;5983229;23;20014;-85
2023/01/03 13:20:49;;;;;;;6.93;2.30;;;;;;;;;;6004559;23;20027;-84
2023/01/03 13:23:32;;;;;;;7.25;3.28;;;;;;;;;;5983045;23;20463;-85
2023/01/03 13:26:06;;;;;;;5.00;2.03;;;;;;;;;;6030031;23;20023;-84
2023/01/03 13:28:36;;;;;;;4.63;2.17;;;;;;;;;;6031535;23;20098;-81
2023/01/03 13:31:35;;;;;;;4.18;2.00;;;;;;;;;;5982179;23;20051;-81
2023/01/03 13:34:31;;;;;;;3.92;1.98;;;;;;;;;;6020578;23;20470;-80
2023/01/03 13:37:05;;;;;;;5.95;2.47;;;;;;;;;;6028838;23;20034;-80
2023/01/03 13:39:37;;;;;;;6.07;2.53;;;;;;;;;;6053378;23;20019;-81
2023/01/03 13:42:03;;;;;;;5.97;2.90;;;;;;;;;;6004905;23;20034;-81
2023/01/03 13:44:28;;;;;;;6.93;2.70;;;;;;;;;;6006723;23;20430;-81
2023/01/03 13:46:54;;;;;;;6.25;2.83;;;;;;;;;;5981880;23;20017;-82
2023/01/03 13:49:22;;;;;;;4.38;2.25;;;;;;;;;;5982351;23;20019;-81
2023/01/03 13:51:50;;;;;;;4.85;2.33;;;;;;;;;;6005785;23;20011;-81
2023/01/03 13:54:15;;;;;;;;;;;;;;;;;;5984327;23;20355;-81
2023/01/03 13:56:43;;;;;;;6.15;2.75;;;;;;;;;;6032720;23;19913;-81
2023/01/03 13:59:21;;;;;;;5.28;2.92;;;;;;;;;;6007152;23;20557;-80
2023/01/03 14:01:49;;;;;;;;;;;;;;;;;;6031101;23;20019;-81
2023/01/03 14:04:25;;;;;;;6.03;2.90;;;;;;;;;;6031139;23;19998;-81
2023/01/03 14:07:19;;;;;;;6.03;2.90;;;;;;;;;;5964957;23;20023;-80
2023/01/03 14:10:20;;;;;;;5.28;2.78;;;;;;;;;;6005611;23;20019;-80
2023/01/03 14:13:14;;;;;;;6.63;2.92;;;;;;;;;;6005935;23;20026;-81
2023/01/03 14:15:40;;;;;;;7.25;2.72;;;;;;;;;;6037596;23;20468;-81
2023/01/03 14:18:26;;;;;;;7.90;2.92;;;;;;;;;;5983271;23;20016;-81
2023/01/03 14:20:53;;;;;;;6.55;2.83;;;;;;;;;;6052039;23;20507;-80
2023/01/03 14:23:23;;;;;;;5.57;2.97;;;;;;;;;;6006952;23;20718;-80
2023/01/03 14:26:01;;;;;;;6.72;2.90;;;;;;;;;;6004847;23;20493;-80
2023/01/03 14:28:30;;;;;;;6.90;3.00;;;;;;;;;;5983429;23;20026;-80
2023/01/03 14:30:59;;;;;;;6.00;2.90;;;;;;;;;;5967701;23;20038;-80
2023/01/03 14:33:30;;;;;;;5.57;2.97;;;;;;;;;;6004393;23;20030;-80
2023/01/03 14:36:03;;;;;;;5.05;2.95;;;;;;;;;;5981067;23;20019;-81
2023/01/03 14:38:30;;;;;;;5.43;2.88;;;;;;;;;;6006053;23;20460;-80
2023/01/03 14:40:57;;;;;;;5.03;2.63;;;;;;;;;;5981637;23;20023;-81
2023/01/03 14:43:30;;;;;;;12.20;2.90;;;;;;;;;;5981485;23;20011;-80
2023/01/03 14:46:06;;;;;;;6.30;2.70;;;;;;;;;;5981793;23;20030;-80
2023/01/03 14:48:35;;;;;;;5.50;2.60;;;;;;;;;;5981499;23;20107;-80
2023/01/03 14:51:02;;;;;;;5.45;2.72;;;;;;;;;;5951119;23;20535;-82
2023/01/03 14:53:28;;;;;;;;;;;;;;;;;;5982111;23;20031;-81
2023/01/03 14:55:55;;;;;;;7.25;2.90;;;;;;;;;;5981344;23;20513;-83
2023/01/03 14:58:34;;;;;;;6.22;2.85;;;;;;;;;;6005371;23;20074;-82
2023/01/03 15:01:03;;;;;;;9.40;3.03;;;;;;;;;;5981178;23;20456;-81
2023/01/03 15:03:30;;;;;;;5.75;3.08;;;;;;;;;;6028479;23;20037;-82
2023/01/03 15:05:59;;;;;;;7.60;3.63;;;;;;;;;;6005339;23;20087;-82
2023/01/03 15:08:30;;;;;;;6.50;2.92;;;;;;;;;;6028938;23;20028;-80
2023/01/03 15:11:07;;;;;;;6.82;2.75;;;;;;;;;;5980925;23;20113;-81
2023/01/03 15:13:35;;;;;;;7.33;3.53;;;;;;;;;;5982520;23;20090;-81
2023/01/03 15:16:23;;;;;;;5.75;3.38;;;;;;;;;;5981365;23;20252;-81
2023/01/03 15:18:49;;;;;;;5.75;3.25;;;;;;;;;;5981913;23;20440;-81
2023/01/03 15:21:17;;;;;;;9.23;3.30;;;;;;;;;;6028968;23;20022;-81
2023/01/03 15:23:47;;;;;;;7.53;3.42;;;;;;;;;;6005404;23;20019;-81
2023/01/03 15:26:23;;;;;;;7.00;3.47;;;;;;;;;;6004439;23;20098;-81
2023/01/03 15:28:51;;;;;;;15.63;3.83;;;;;;;;;;6005205;23;20079;-81
2023/01/03 15:31:22;;;;;;;8.63;3.85;;;;;;;;;;6004851;23;20027;-81
2023/01/03 15:34:17;;;;;;;8.13;4.32;;;;;;;;;;6005382;23;20050;-81
2023/01/03 15:36:58;;;;;;;7.18;3.80;;;;;;;;;;5980724;23;20034;-81
2023/01/03 15:39:25;;;;;;;8.93;4.35;;;;;;;;;;6004885;23;20071;-82
2023/01/03 15:44:40;;;;;;;8.20;4.32;;;;;;;;;;6009318;23;20026;-80
2023/01/03 15:47:07;;;;;;;9.80;5.20;;;;;;;;;;6003833;23;20034;-80
2023/01/03 15:49:41;;;;;;;8.38;4.57;;;;;;;;;;5982015;23;20452;-81
2023/01/03 15:52:11;;;;;;;10.20;4.90;;;;;;;;;;5982737;23;20079;-80
2023/01/03 15:54:36;;;;;;;8.70;4.95;;;;;;;;;;6029162;23;20019;-82
2023/01/03 15:57:04;;;;;;;10.40;5.18;;;;;;;;;;6029130;23;20038;-82
2023/01/03 15:59:32;;;;;;;11.15;4.93;;;;;;;;;;5984568;23;20474;-81
2023/01/03 16:01:58;;;;;;;10.20;5.18;;;;;;;;;;5978262;23;20128;-82
2023/01/03 16:04:24;;;;;;;8.98;5.32;;;;;;;;;;5998832;23;20468;-80
2023/01/03 16:06:51;;;;;;;12.50;5.45;;;;;;;;;;6029948;23;20018;-81
2023/01/03 16:09:16;;;;;;;10.50;5.68;;;;;;;;;;5984335;23;20027;-81
2023/01/03 16:11:43;;;;;;;10.82;6.43;;;;;;;;;;6029724;23;20018;-81